Time;durP1;ratioP1;P1;durP2;ratioP2;P2;SDS_P1;SDS_P2;PMS_P1;PMS_P2;Temp;Humidity;BMP_temperature;BMP_pressure;BME280_temperature;BME280_humidity;BME280_pressure;Samples;Min_cycle;Max_cycle;Signal;HPM_P1;HPM_P2
2023/12/02 00:02:22;;;;;;;;;;;;;;;;;;4998143;28;128825;-78
2023/12/02 00:04:49;;;;;;;;;;;;;;;;;;4992606;28;130430;-78
2023/12/02 00:07:17;;;;;;;;;;;;;;;;;;4996282;28;121773;-77
2023/12/02 00:09:43;;;;;;;;;;;;;;;;;;4999489;28;129110;-77
2023/12/02 00:12:09;;;;;;;;;;;;;;;;;;5000010;28;122278;-77
2023/12/02 00:14:36;;;;;;;;;;;;;;;;;;4999182;28;129031;-77
2023/12/02 00:17:02;;;;;;;;;;;;;;;;;;5001801;28;129688;-77
2023/12/02 00:19:28;;;;;;;;;;;;;;;;;;5001088;28;125250;-76
2023/12/02 00:21:55;;;;;;;;;;;;;;;;;;4997541;28;129195;-78
2023/12/02 00:24:21;;;;;;;;;;;;;;;;;;5000685;28;130311;-78
2023/12/02 00:26:47;;;;;;;;;;;;;;;;;;5003219;28;123134;-78
2023/12/02 00:29:14;;;;;;;;;;;;;;;;;;5000846;28;129680;-78
2023/12/02 00:31:40;;;;;;;;;;;;;;;;;;5006389;28;130172;-78
2023/12/02 00:34:06;;;;;;;;;;;;;;;;;;4999421;28;129003;-77
2023/12/02 00:36:33;;;;;;;;;;;;;;;;;;5002984;28;127642;-77
2023/12/02 00:38:59;;;;;;;;;;;;;;;;;;4994230;28;122991;-77
2023/12/02 00:41:26;;;;;;;;;;;;;;;;;;5003897;28;128743;-78
2023/12/02 00:43:52;;;;;;;;;;;;;;;;;;5000917;28;130677;-77
2023/12/02 00:46:19;;;;;;;;;;;;;;;;;;5003711;28;109154;-76
2023/12/02 00:48:45;;;;;;;;;;;;;;;;;;4997667;28;128994;-77
2023/12/02 00:51:12;;;;;;;;;;;;;;;;;;4995900;28;129399;-77
2023/12/02 00:53:38;;;;;;;;;;;;;;;;;;5003358;28;122232;-76
2023/12/02 00:56:04;;;;;;;;;;;;;;;;;;4997295;28;129643;-76
2023/12/02 00:58:31;;;;;;;;;;;;;;;;;;4997768;28;122213;-77
2023/12/02 01:01:03;;;;;;;;;;;;;;;;;;5000517;28;129088;-77
2023/12/02 01:03:30;;;;;;;;;;;;;;;;;;4998305;28;129480;-78
2023/12/02 01:05:56;;;;;;;;;;;;;;;;;;4995090;28;123132;-78
2023/12/02 01:08:22;;;;;;;;;;;;;;;;;;4996034;28;118888;-78
2023/12/02 01:10:49;;;;;;;;;;;;;;;;;;5004479;28;129673;-78
2023/12/02 01:13:15;;;;;;;;;;;;;;;;;;5000010;28;124003;-76
2023/12/02 01:15:41;;;;;;;;;;;;;;;;;;5002681;28;129177;-77
2023/12/02 01:18:08;;;;;;;;;;;;;;;;;;4998379;28;122869;-77
2023/12/02 01:20:34;;;;;;;;;;;;;;;;;;4995003;28;127387;-77
2023/12/02 01:23:00;;;;;;;;;;;;;;;;;;4997770;28;129468;-78
2023/12/02 01:25:26;;;;;;;;;;;;;;;;;;5001176;28;123122;-77
2023/12/02 01:27:53;;;;;;;;;;;;;;;;;;5002012;28;130897;-79
2023/12/02 01:30:19;;;;;;;;;;;;;;;;;;4996359;28;129911;-78
2023/12/02 01:32:45;;;;;;;;;;;;;;;;;;4996909;28;125416;-77
2023/12/02 01:35:12;;;;;;;;;;;;;;;;;;4996030;28;129170;-78
2023/12/02 01:37:38;;;;;;;;;;;;;;;;;;5005415;28;127035;-78
2023/12/02 01:40:04;;;;;;;;;;;;;;;;;;5005567;28;129470;-77
2023/12/02 01:42:31;;;;;;;;;;;;;;;;;;5003104;28;120186;-77
2023/12/02 01:44:57;;;;;;;;;;;;;;;;;;4996849;28;123056;-78
2023/12/02 01:47:23;;;;;;;;;;;;;;;;;;4998385;28;123163;-78
2023/12/02 01:49:50;;;;;;;;;;;;;;;;;;4997624;28;129569;-78
2023/12/02 01:52:16;;;;;;;;;;;;;;;;;;4998665;28;110773;-78
2023/12/02 01:54:42;;;;;;;;;;;;;;;;;;4997384;28;124822;-78
2023/12/02 01:57:09;;;;;;;;;;;;;;;;;;4998337;28;130112;-77
2023/12/02 01:59:35;;;;;;;;;;;;;;;;;;5000844;28;121824;-77
2023/12/02 02:02:01;;;;;;;;;;;;;;;;;;4998851;28;129818;-78
2023/12/02 02:04:28;;;;;;;;;;;;;;;;;;4999238;28;103348;-77
2023/12/02 02:06:54;;;;;;;;;;;;;;;;;;4997133;28;129714;-77
2023/12/02 02:09:21;;;;;;;;;;;;;;;;;;4997752;28;129357;-77
2023/12/02 02:11:47;;;;;;;;;;;;;;;;;;4996435;28;124243;-77
2023/12/02 02:14:13;;;;;;;;;;;;;;;;;;4994396;28;129560;-77
2023/12/02 02:16:40;;;;;;;;;;;;;;;;;;5000192;28;129363;-77
2023/12/02 02:19:06;;;;;;;;;;;;;;;;;;5003580;28;123097;-77
2023/12/02 02:21:32;;;;;;;;;;;;;;;;;;4994855;28;129542;-78
2023/12/02 02:23:59;;;;;;;;;;;;;;;;;;4998042;28;112711;-78
2023/12/02 02:26:25;;;;;;;;;;;;;;;;;;4997643;28;128965;-76
2023/12/02 02:28:52;;;;;;;;;;;;;;;;;;4999479;28;132406;-77
2023/12/02 02:31:18;;;;;;;;;;;;;;;;;;5007202;28;123934;-78
2023/12/02 02:33:44;;;;;;;;;;;;;;;;;;4993057;28;129233;-78
2023/12/02 02:36:10;;;;;;;;;;;;;;;;;;4998810;28;129690;-78
2023/12/02 02:38:37;;;;;;;;;;;;;;;;;;4996688;28;122881;-77
2023/12/02 02:41:03;;;;;;;;;;;;;;;;;;4999799;28;130029;-77
2023/12/02 02:43:29;;;;;;;;;;;;;;;;;;4995939;28;122656;-78
2023/12/02 02:45:56;;;;;;;;;;;;;;;;;;4995989;28;98529;-77
2023/12/02 02:48:22;;;;;;;;;;;;;;;;;;4998327;28;129232;-76
2023/12/02 02:50:49;;;;;;;;;;;;;;;;;;4998987;28;111890;-79
2023/12/02 02:53:15;;;;;;;;;;;;;;;;;;5004036;28;129841;-78
2023/12/02 02:55:41;;;;;;;;;;;;;;;;;;4998361;28;129369;-78
2023/12/02 02:58:08;;;;;;;;;;;;;;;;;;4997643;28;123077;-77
2023/12/02 03:00:34;;;;;;;;;;;;;;;;;;4997358;28;129668;-78
2023/12/02 03:03:00;;;;;;;;;;;;;;;;;;5000070;28;128055;-78
2023/12/02 03:05:27;;;;;;;;;;;;;;;;;;5000750;28;112781;-78
2023/12/02 03:07:53;;;;;;;;;;;;;;;;;;4987196;28;130170;-78
2023/12/02 03:10:19;;;;;;;;;;;;;;;;;;4993753;28;125626;-77
2023/12/02 03:12:46;;;;;;;;;;;;;;;;;;4995508;28;128972;-78
2023/12/02 03:15:12;;;;;;;;;;;;;;;;;;4986291;28;129751;-77
2023/12/02 03:17:39;;;;;;;;;;;;;;;;;;4999605;28;123098;-78
2023/12/02 03:20:06;;;;;;;;;;;;;;;;;;4997114;28;131070;-78
2023/12/02 03:22:32;;;;;;;;;;;;;;;;;;5000065;28;129584;-78
2023/12/02 03:24:58;;;;;;;;;;;;;;;;;;5001343;28;121865;-77
2023/12/02 03:27:25;;;;;;;;;;;;;;;;;;4993250;28;129070;-78
2023/12/02 03:29:51;;;;;;;;;;;;;;;;;;4994847;28;123263;-77
2023/12/02 03:32:18;;;;;;;;;;;;;;;;;;4994326;28;127471;-77
2023/12/02 03:34:44;;;;;;;;;;;;;;;;;;5000909;28;130362;-77
2023/12/02 03:37:11;;;;;;;;;;;;;;;;;;4989524;28;123803;-77
2023/12/02 03:39:37;;;;;;;;;;;;;;;;;;5006967;28;129541;-77
2023/12/02 03:42:04;;;;;;;;;;;;;;;;;;5005770;28;129595;-77
2023/12/02 03:44:30;;;;;;;;;;;;;;;;;;4990315;28;123103;-77
2023/12/02 03:46:56;;;;;;;;;;;;;;;;;;5003952;28;129142;-78
2023/12/02 03:49:23;;;;;;;;;;;;;;;;;;4994173;28;123096;-78
2023/12/02 03:51:50;;;;;;;;;;;;;;;;;;4996061;28;130040;-78
2023/12/02 03:54:16;;;;;;;;;;;;;;;;;;4995631;28;130108;-78
2023/12/02 03:56:42;;;;;;;;;;;;;;;;;;4997026;28;123186;-78
2023/12/02 03:59:09;;;;;;;;;;;;;;;;;;4996125;28;129068;-78
2023/12/02 04:01:36;;;;;;;;;;;;;;;;;;4996463;28;128508;-77
2023/12/02 04:04:02;;;;;;;;;;;;;;;;;;4996142;28;123024;-78
2023/12/02 04:06:28;;;;;;;;;;;;;;;;;;4996316;28;130511;-77
2023/12/02 04:08:55;;;;;;;;;;;;;;;;;;5001491;28;99436;-76
2023/12/02 04:11:21;;;;;;;;;;;;;;;;;;4995113;28;129017;-78
2023/12/02 04:13:48;;;;;;;;;;;;;;;;;;4996074;28;130052;-77
2023/12/02 04:16:14;;;;;;;;;;;;;;;;;;4995444;28;124111;-78
2023/12/02 04:18:41;;;;;;;;;;;;;;;;;;4994911;28;126998;-78
2023/12/02 04:21:08;;;;;;;;;;;;;;;;;;4989977;28;130335;-78
2023/12/02 04:23:35;;;;;;;;;;;;;;;;;;4989955;28;125883;-78
2023/12/02 04:26:01;;;;;;;;;;;;;;;;;;4992835;28;129999;-77
2023/12/02 04:28:27;;;;;;;;;;;;;;;;;;4996441;28;127222;-76
2023/12/02 04:30:53;;;;;;;;;;;;;;;;;;4996749;28;129747;-77
2023/12/02 04:33:20;;;;;;;;;;;;;;;;;;4994124;28;129675;-76
2023/12/02 04:35:46;;;;;;;;;;;;;;;;;;4999617;28;122919;-77
2023/12/02 04:38:13;;;;;;;;;;;;;;;;;;4995293;28;104638;-76
2023/12/02 04:40:39;;;;;;;;;;;;;;;;;;4994326;28;129419;-76
2023/12/02 04:43:06;;;;;;;;;;;;;;;;;;4992939;28;123183;-77
2023/12/02 04:45:32;;;;;;;;;;;;;;;;;;4993146;28;130874;-77
2023/12/02 04:47:58;;;;;;;;;;;;;;;;;;4995445;28;126716;-78
2023/12/02 04:50:25;;;;;;;;;;;;;;;;;;4997420;28;123212;-75
2023/12/02 04:52:51;;;;;;;;;;;;;;;;;;4991807;28;128375;-77
2023/12/02 04:55:18;;;;;;;;;;;;;;;;;;4992446;28;124111;-77
2023/12/02 04:57:44;;;;;;;;;;;;;;;;;;4995417;28;99545;-77
2023/12/02 05:00:13;;;;;;;;;;;;;;;;;;4999507;28;129091;-77
2023/12/02 05:02:40;;;;;;;;;;;;;;;;;;4997665;28;125547;-77
2023/12/02 05:05:07;;;;;;;;;;;;;;;;;;4996722;28;120238;-76
2023/12/02 05:07:33;;;;;;;;;;;;;;;;;;4995740;28;130261;-77
2023/12/02 05:09:59;;;;;;;;;;;;;;;;;;4995642;28;123847;-76
2023/12/02 05:12:26;;;;;;;;;;;;;;;;;;5000556;28;129225;-77
2023/12/02 05:14:52;;;;;;;;;;;;;;;;;;4995770;28;123167;-78
2023/12/02 05:17:18;;;;;;;;;;;;;;;;;;4997357;28;125963;-78
2023/12/02 05:19:45;;;;;;;;;;;;;;;;;;4997456;28;130413;-78
2023/12/02 05:22:11;;;;;;;;;;;;;;;;;;4994436;28;123854;-77
2023/12/02 05:24:37;;;;;;;;;;;;;;;;;;4998079;28;130902;-78
2023/12/02 05:27:04;;;;;;;;;;;;;;;;;;4994893;28;131645;-78
2023/12/02 05:29:30;;;;;;;;;;;;;;;;;;4995630;28;98839;-77
2023/12/02 05:31:56;;;;;;;;;;;;;;;;;;4996726;28;128739;-77
2023/12/02 05:34:23;;;;;;;;;;;;;;;;;;5000691;28;130161;-78
2023/12/02 05:36:49;;;;;;;;;;;;;;;;;;5004715;28;129360;-78
2023/12/02 05:39:16;;;;;;;;;;;;;;;;;;4999651;28;128849;-76
2023/12/02 05:41:43;;;;;;;;;;;;;;;;;;4996138;28;122783;-77
2023/12/02 05:44:09;;;;;;;;;;;;;;;;;;4998197;28;129869;-77
2023/12/02 05:46:35;;;;;;;;;;;;;;;;;;4995971;28;129534;-76
2023/12/02 05:49:02;;;;;;;;;;;;;;;;;;4995422;28;123103;-78
2023/12/02 05:51:28;;;;;;;;;;;;;;;;;;4996403;28;129082;-78
2023/12/02 05:53:54;;;;;;;;;;;;;;;;;;4994108;28;130338;-77
2023/12/02 05:56:21;;;;;;;;;;;;;;;;;;4999675;28;120756;-78
2023/12/02 05:58:48;;;;;;;;;;;;;;;;;;4997462;28;129453;-77
2023/12/02 06:01:14;;;;;;;;;;;;;;;;;;5003996;28;125772;-77
2023/12/02 06:03:40;;;;;;;;;;;;;;;;;;5006307;28;129843;-77
2023/12/02 06:06:07;;;;;;;;;;;;;;;;;;5007560;28;130471;-76
2023/12/02 06:08:33;;;;;;;;;;;;;;;;;;5007951;27;123144;-76
2023/12/02 06:10:59;;;;;;;;;;;;;;;;;;5007835;28;110333;-78
2023/12/02 06:13:26;;;;;;;;;;;;;;;;;;5014444;28;129450;-77
2023/12/02 06:15:52;;;;;;;;;;;;;;;;;;5010723;28;122996;-77
2023/12/02 06:18:18;;;;;;;;;;;;;;;;;;5012642;28;129584;-76
2023/12/02 06:20:45;;;;;;;;;;;;;;;;;;4995845;28;118633;-76
2023/12/02 06:23:11;;;;;;;;;;;;;;;;;;4995730;28;128170;-76
2023/12/02 06:25:37;;;;;;;;;;;;;;;;;;4993597;28;129487;-75
2023/12/02 06:28:04;;;;;;;;;;;;;;;;;;5009144;28;122826;-76
2023/12/02 06:30:31;;;;;;;;;;;;;;;;;;5009703;28;128934;-76
2023/12/02 06:32:57;;;;;;;;;;;;;;;;;;5018042;27;129842;-79
2023/12/02 06:35:24;;;;;;;;;;;;;;;;;;5018925;28;124015;-79
2023/12/02 06:37:50;;;;;;;;;;;;;;;;;;5028938;28;128893;-76
2023/12/02 06:40:17;;;;;;;;;;;;;;;;;;5027475;27;119570;-76
2023/12/02 06:42:43;;;;;;;;;;;;;;;;;;5013513;28;129124;-77
2023/12/02 06:45:09;;;;;;;;;;;;;;;;;;5014336;28;129464;-76
2023/12/02 06:47:36;;;;;;;;;;;;;;;;;;5012999;27;98317;-77
2023/12/02 06:50:03;;;;;;;;;;;;;;;;;;5015629;28;130021;-76
2023/12/02 06:52:30;;;;;;;;;;;;;;;;;;5017764;28;130589;-76
2023/12/02 06:54:56;;;;;;;;;;;;;;;;;;5019001;28;123000;-76
2023/12/02 06:57:25;;;;;;;;;;;;;;;;;;5017170;27;98690;-76
2023/12/02 06:59:51;;;;;;;;;;;;;;;;;;5023877;28;129548;-76
2023/12/02 07:02:18;;;;;;;;;;;;;;;;;;5008868;28;129019;-77
2023/12/02 07:04:46;;;;;;;;;;;;;;;;;;5015828;28;129465;-77
2023/12/02 07:07:12;;;;;;;;;;;;;;;;;;5014001;28;121106;-77
2023/12/02 07:09:38;;;;;;;;;;;;;;;;;;5027039;27;131010;-77
2023/12/02 07:12:05;;;;;;;;;;;;;;;;;;5016784;28;130287;-77
2023/12/02 07:14:32;;;;;;;;;;;;;;;;;;5009329;28;126224;-77
2023/12/02 07:16:58;;;;;;;;;;;;;;;;;;5026873;28;130108;-77
2023/12/02 07:19:24;;;;;;;;;;;;;;;;;;5023530;28;130384;-76
2023/12/02 07:21:51;;;;;;;;;;;;;;;;;;5021540;28;121972;-77
2023/12/02 07:24:17;;;;;;;;;;;;;;;;;;5025784;28;128378;-77
2023/12/02 07:26:44;;;;;;;;;;;;;;;;;;5022670;28;118621;-77
2023/12/02 07:29:10;;;;;;;;;;;;;;;;;;5012146;28;128715;-78
2023/12/02 07:31:36;;;;;;;;;;;;;;;;;;5006846;28;129561;-77
2023/12/02 07:34:02;;;;;;;;;;;;;;;;;;5014264;28;121936;-77
2023/12/02 07:36:29;;;;;;;;;;;;;;;;;;5006730;28;100034;-81
2023/12/02 07:38:55;;;;;;;;;;;;;;;;;;5009025;28;128016;-76
2023/12/02 07:41:21;;;;;;;;;;;;;;;;;;5005263;28;111675;-76
2023/12/02 07:43:48;;;;;;;;;;;;;;;;;;5006319;28;129840;-76
2023/12/02 07:46:14;;;;;;;;;;;;;;;;;;5026208;28;119924;-76
2023/12/02 07:48:41;;;;;;;;;;;;;;;;;;5022347;28;129627;-76
2023/12/02 07:51:07;;;;;;;;;;;;;;;;;;5020070;28;129721;-76
2023/12/02 07:53:33;;;;;;;;;;;;;;;;;;5017846;28;123057;-75
2023/12/02 07:56:00;;;;;;;;;;;;;;;;;;5017287;27;128857;-76
2023/12/02 07:58:26;;;;;;;;;;;;;;;;;;5017233;27;130197;-76
2023/12/02 08:00:53;;;;;;;;;;;;;;;;;;5009124;28;121617;-76
2023/12/02 08:03:19;;;;;;;;;;;;;;;;;;5009856;28;129021;-77
2023/12/02 08:05:47;;;;;;;;;;;;;;;;;;5019492;28;127983;-76
2023/12/02 08:08:14;;;;;;;;;;;;;;;;;;5017244;28;129101;-76
2023/12/02 08:10:40;;;;;;;;;;;;;;;;;;5015408;28;129613;-72
2023/12/02 08:13:06;;;;;;;;;;;;;;;;;;5010779;28;123027;-72
2023/12/02 08:15:33;;;;;;;;;;;;;;;;;;5009096;28;127650;-72
2023/12/02 08:17:59;;;;;;;;;;;;;;;;;;5013322;28;129970;-73
2023/12/02 08:20:26;;;;;;;;;;;;;;;;;;5020967;28;122610;-73
2023/12/02 08:22:52;;;;;;;;;;;;;;;;;;5015190;28;129212;-73
2023/12/02 08:25:19;;;;;;;;;;;;;;;;;;5013126;28;129290;-73
2023/12/02 08:27:45;;;;;;;;;;;;;;;;;;5008930;28;128856;-73
2023/12/02 08:30:11;;;;;;;;;;;;;;;;;;5023719;28;129497;-72
2023/12/02 08:32:38;;;;;;;;;;;;;;;;;;5011413;28;123428;-73
2023/12/02 08:35:04;;;;;;;;;;;;;;;;;;5025111;28;129355;-73
2023/12/02 08:37:30;;;;;;;;;;;;;;;;;;5016637;28;130276;-72
2023/12/02 08:39:57;;;;;;;;;;;;;;;;;;5019417;28;121144;-72
2023/12/02 08:42:23;;;;;;;;;;;;;;;;;;5014889;28;129159;-73
2023/12/02 08:44:49;;;;;;;;;;;;;;;;;;5024886;28;129397;-70
2023/12/02 08:47:16;;;;;;;;;;;;;;;;;;5019600;28;120953;-73
2023/12/02 08:49:42;;;;;;;;;;;;;;;;;;5024489;28;129843;-71
2023/12/02 08:52:09;;;;;;;;;;;;;;;;;;5015387;28;127132;-72
2023/12/02 08:54:35;;;;;;;;;;;;;;;;;;5006260;28;128892;-73
2023/12/02 08:57:02;;;;;;;;;;;;;;;;;;5000734;28;124194;-72
2023/12/02 08:59:28;;;;;;;;;;;;;;;;;;5000244;28;123092;-73
2023/12/02 09:01:55;;;;;;;;;;;;;;;;;;5000774;28;129097;-72
2023/12/02 09:04:21;;;;;;;;;;;;;;;;;;5003726;28;128842;-72
2023/12/02 09:06:48;;;;;;;;;;;;;;;;;;4997116;28;122969;-73
2023/12/02 09:09:14;;;;;;;;;;;;;;;;;;5011365;28;129804;-73
2023/12/02 09:11:41;;;;;;;;;;;;;;;;;;5000456;28;121797;-74
2023/12/02 09:14:07;;;;;;;;;;;;;;;;;;4999181;28;128936;-73
2023/12/02 09:16:34;;;;;;;;;;;;;;;;;;5000388;28;129431;-72
2023/12/02 09:19:00;;;;;;;;;;;;;;;;;;5002146;28;123101;-72
2023/12/02 09:21:26;;;;;;;;;;;;;;;;;;4995733;28;128982;-72
2023/12/02 09:23:53;;;;;;;;;;;;;;;;;;4997424;28;100055;-72
2023/12/02 09:26:19;;;;;;;;;;;;;;;;;;4988600;28;123788;-72
2023/12/02 09:28:46;;;;;;;;;;;;;;;;;;4995108;28;128994;-73
2023/12/02 09:31:12;;;;;;;;;;;;;;;;;;4994940;28;127799;-72
2023/12/02 09:33:38;;;;;;;;;;;;;;;;;;5001270;28;129014;-72
2023/12/02 09:36:06;;;;;;;;;;;;;;;;;;4995386;28;129187;-72
2023/12/02 09:38:32;;;;;;;;;;;;;;;;;;5004934;28;121607;-73
2023/12/02 09:40:58;;;;;;;;;;;;;;;;;;4991099;28;129228;-72
2023/12/02 09:43:25;;;;;;;;;;;;;;;;;;5003355;28;129418;-72
2023/12/02 09:45:51;;;;;;;;;;;;;;;;;;5004210;28;123039;-73
2023/12/02 09:48:17;;;;;;;;;;;;;;;;;;4997737;28;129053;-72
2023/12/02 09:50:44;;;;;;;;;;;;;;;;;;4996434;28;130123;-73
2023/12/02 09:53:10;;;;;;;;;;;;;;;;;;5005971;28;122938;-73
2023/12/02 09:55:37;;;;;;;;;;;;;;;;;;4994823;28;126387;-73
2023/12/02 09:58:03;;;;;;;;;;;;;;;;;;5005103;28;121862;-73
2023/12/02 10:00:30;;;;;;;;;;;;;;;;;;5003973;28;129601;-73
2023/12/02 10:02:56;;;;;;;;;;;;;;;;;;4998327;28;129595;-73
2023/12/02 10:05:22;;;;;;;;;;;;;;;;;;4991325;28;125783;-73
2023/12/02 10:07:49;;;;;;;;;;;;;;;;;;4999588;28;128904;-73
2023/12/02 10:10:17;;;;;;;;;;;;;;;;;;5002935;28;129429;-73
2023/12/02 10:12:46;;;;;;;;;;;;;;;;;;4996236;28;123357;-72
2023/12/02 10:15:12;;;;;;;;;;;;;;;;;;5006185;28;129987;-73
2023/12/02 10:17:38;;;;;;;;;;;;;;;;;;5004072;28;123537;-72
2023/12/02 10:20:09;;;;;;;;;;;;;;;;;;5000050;28;120731;-72
2023/12/02 10:22:35;;;;;;;;;;;;;;;;;;4996039;28;132709;-73
2023/12/02 10:25:02;;;;;;;;;;;;;;;;;;4996468;28;123009;-73
2023/12/02 10:27:28;;;;;;;;;;;;;;;;;;4999281;28;129075;-73
2023/12/02 10:29:55;;;;;;;;;;;;;;;;;;4996358;28;128130;-73
2023/12/02 10:32:21;;;;;;;;;;;;;;;;;;4998620;28;123008;-73
2023/12/02 10:34:47;;;;;;;;;;;;;;;;;;4993792;28;128954;-72
2023/12/02 10:37:14;;;;;;;;;;;;;;;;;;4992646;28;123153;-70
2023/12/02 10:39:42;;;;;;;;;;;;;;;;;;4993199;28;128947;-71
2023/12/02 10:42:08;;;;;;;;;;;;;;;;;;4996770;28;129354;-73
2023/12/02 10:44:35;;;;;;;;;;;;;;;;;;4999444;28;121740;-71
2023/12/02 10:47:01;;;;;;;;;;;;;;;;;;4997068;28;129094;-72
2023/12/02 10:49:27;;;;;;;;;;;;;;;;;;4994929;28;127017;-74
2023/12/02 10:51:54;;;;;;;;;;;;;;;;;;4997763;28;124029;-71
2023/12/02 10:54:24;;;;;;;;;;;;;;;;;;4998523;28;98761;-72
2023/12/02 10:56:50;;;;;;;;;;;;;;;;;;5002192;28;130132;-71
2023/12/02 10:59:19;;;;;;;;;;;;;;;;;;4998355;28;126249;-71
2023/12/02 11:01:45;;;;;;;;;;;;;;;;;;4998650;28;129912;-72
2023/12/02 11:04:11;;;;;;;;;;;;;;;;;;4998942;28;122999;-72
2023/12/02 11:06:38;;;;;;;;;;;;;;;;;;4995336;28;129835;-72
2023/12/02 11:09:05;;;;;;;;;;;;;;;;;;5001014;28;129428;-72
2023/12/02 11:11:31;;;;;;;;;;;;;;;;;;4997464;28;122462;-72
2023/12/02 11:13:59;;;;;;;;;;;;;;;;;;4997902;28;129132;-72
2023/12/02 11:16:25;;;;;;;;;;;;;;;;;;4997216;28;128077;-72
2023/12/02 11:18:52;;;;;;;;;;;;;;;;;;5017695;28;128087;-71
2023/12/02 11:21:18;;;;;;;;;;;;;;;;;;4992181;28;128966;-71
2023/12/02 11:23:47;;;;;;;;;;;;;;;;;;4990213;28;102932;-72
2023/12/02 11:26:13;;;;;;;;;;;;;;;;;;4990322;28;115669;-72
2023/12/02 11:28:39;;;;;;;;;;;;;;;;;;4993657;28;129602;-72
2023/12/02 11:31:06;;;;;;;;;;;;;;;;;;5008234;28;114275;-71
2023/12/02 11:33:32;;;;;;;;;;;;;;;;;;4990236;28;127782;-71
2023/12/02 11:35:59;;;;;;;;;;;;;;;;;;5006041;28;129396;-77
2023/12/02 11:38:26;;;;;;;;;;;;;;;;;;5018599;28;117495;-71
2023/12/02 11:40:53;;;;;;;;;;;;;;;;;;4993127;28;130648;-74
2023/12/02 11:43:19;;;;;;;;;;;;;;;;;;4996135;28;126037;-73
2023/12/02 11:45:45;;;;;;;;;;;;;;;;;;4990434;28;128557;-73
2023/12/02 11:48:12;;;;;;;;;;;;;;;;;;4999432;28;129761;-72
2023/12/02 11:50:38;;;;;;;;;;;;;;;;;;4997999;28;123115;-72
2023/12/02 11:53:08;;;;;;;;;;;;;;;;;;4994335;28;128220;-74
2023/12/02 11:55:34;;;;;;;;;;;;;;;;;;4996877;28;129037;-73
2023/12/02 11:58:00;;;;;;;;;;;;;;;;;;5002026;28;123167;-73
2023/12/02 12:00:26;;;;;;;;;;;;;;;;;;5006089;28;129808;-74
2023/12/02 12:02:53;;;;;;;;;;;;;;;;;;4990650;28;129410;-73
2023/12/02 12:05:21;;;;;;;;;;;;;;;;;;4990220;28;129606;-74
2023/12/02 12:07:48;;;;;;;;;;;;;;;;;;4992751;28;129603;-75
2023/12/02 12:10:14;;;;;;;;;;;;;;;;;;4998418;28;123365;-74
2023/12/02 12:12:40;;;;;;;;;;;;;;;;;;5001524;28;128972;-73
2023/12/02 12:15:07;;;;;;;;;;;;;;;;;;4999512;28;115136;-74
2023/12/02 12:17:34;;;;;;;;;;;;;;;;;;4996367;28;122746;-73
2023/12/02 12:20:00;;;;;;;;;;;;;;;;;;4998463;28;129108;-76
2023/12/02 12:22:26;;;;;;;;;;;;;;;;;;4988929;28;128833;-74
2023/12/02 12:24:53;;;;;;;;;;;;;;;;;;4992742;28;122425;-73
2023/12/02 12:27:19;;;;;;;;;;;;;;;;;;4992476;28;129333;-73
2023/12/02 12:29:45;;;;;;;;;;;;;;;;;;4996412;28;123891;-73
2023/12/02 12:32:12;;;;;;;;;;;;;;;;;;4997494;28;129732;-73
2023/12/02 12:34:38;;;;;;;;;;;;;;;;;;4997635;28;129501;-73
2023/12/02 12:37:04;;;;;;;;;;;;;;;;;;4996893;28;122879;-74
2023/12/02 12:39:33;;;;;;;;;;;;;;;;;;4995192;28;129732;-73
2023/12/02 12:42:00;;;;;;;;;;;;;;;;;;4999545;28;129336;-73
2023/12/02 12:44:26;;;;;;;;;;;;;;;;;;5000490;28;123232;-74
2023/12/02 12:46:52;;;;;;;;;;;;;;;;;;5002077;28;100016;-74
2023/12/02 12:49:19;;;;;;;;;;;;;;;;;;4992410;28;122574;-73
2023/12/02 12:51:46;;;;;;;;;;;;;;;;;;5001147;28;99496;-73
2023/12/02 12:54:13;;;;;;;;;;;;;;;;;;4999950;28;120147;-74
2023/12/02 12:56:40;;;;;;;;;;;;;;;;;;4996526;28;98235;-73
2023/12/02 12:59:07;;;;;;;;;;;;;;;;;;4989089;28;128760;-74
2023/12/02 13:01:33;;;;;;;;;;;;;;;;;;5004513;28;130102;-73
2023/12/02 13:03:59;;;;;;;;;;;;;;;;;;4997328;28;123045;-74
2023/12/02 13:06:26;;;;;;;;;;;;;;;;;;4995891;28;114354;-75
2023/12/02 13:08:54;;;;;;;;;;;;;;;;;;5000919;28;123437;-74
2023/12/02 13:11:21;;;;;;;;;;;;;;;;;;5006229;28;117534;-73
2023/12/02 13:13:53;;;;;;;;;;;;;;;;;;4996076;28;114033;-74
2023/12/02 13:16:20;;;;;;;;;;;;;;;;;;4989481;28;121793;-75
2023/12/02 13:18:46;;;;;;;;;;;;;;;;;;5000523;28;126399;-74
2023/12/02 13:21:13;;;;;;;;;;;;;;;;;;4997424;28;129388;-74
2023/12/02 13:23:39;;;;;;;;;;;;;;;;;;5000202;28;123087;-73
2023/12/02 13:26:06;;;;;;;;;;;;;;;;;;4999300;28;128649;-74
2023/12/02 13:28:36;;;;;;;;;;;;;;;;;;5000076;28;128109;-74
2023/12/02 13:31:02;;;;;;;;;;;;;;;;;;4996853;28;129102;-75
2023/12/02 13:33:28;;;;;;;;;;;;;;;;;;4999287;28;129331;-73
2023/12/02 13:35:55;;;;;;;;;;;;;;;;;;4998984;28;122820;-74
2023/12/02 13:38:22;;;;;;;;;;;;;;;;;;4998143;28;107405;-74
2023/12/02 13:40:49;;;;;;;;;;;;;;;;;;4995261;28;98905;-73
2023/12/02 13:43:16;;;;;;;;;;;;;;;;;;4998726;28;121828;-73
2023/12/02 13:45:43;;;;;;;;;;;;;;;;;;5001373;28;98529;-73
2023/12/02 13:48:11;;;;;;;;;;;;;;;;;;4991052;28;129325;-72
2023/12/02 13:50:38;;;;;;;;;;;;;;;;;;5003167;28;123071;-73
2023/12/02 13:53:04;;;;;;;;;;;;;;;;;;4999579;28;129729;-74
2023/12/02 13:55:31;;;;;;;;;;;;;;;;;;4991041;28;123033;-73
2023/12/02 13:57:57;;;;;;;;;;;;;;;;;;5000775;28;101549;-74
2023/12/02 14:00:24;;;;;;;;;;;;;;;;;;4998768;28;116105;-74
2023/12/02 14:02:51;;;;;;;;;;;;;;;;;;4993653;28;98222;-73
2023/12/02 14:05:18;;;;;;;;;;;;;;;;;;4999050;28;129137;-73
2023/12/02 14:07:44;;;;;;;;;;;;;;;;;;4986361;28;128662;-74
2023/12/02 14:10:11;;;;;;;;;;;;;;;;;;4996661;28;103349;-74
2023/12/02 14:12:37;;;;;;;;;;;;;;;;;;5002018;28;101696;-74
2023/12/02 14:15:04;;;;;;;;;;;;;;;;;;5000348;28;122683;-73
2023/12/02 14:17:30;;;;;;;;;;;;;;;;;;5007099;28;99512;-73
2023/12/02 14:19:57;;;;;;;;;;;;;;;;;;5006798;28;130113;-73
2023/12/02 14:22:23;;;;;;;;;;;;;;;;;;4992594;28;114549;-74
2023/12/02 14:24:50;;;;;;;;;;;;;;;;;;5008275;28;117403;-73
2023/12/02 14:27:16;;;;;;;;;;;;;;;;;;4999903;28;125591;-74
2023/12/02 14:29:43;;;;;;;;;;;;;;;;;;4987930;28;113453;-74
2023/12/02 14:32:11;;;;;;;;;;;;;;;;;;4996902;28;119200;-74
2023/12/02 14:34:37;;;;;;;;;;;;;;;;;;5000445;28;98074;-74
2023/12/02 14:37:04;;;;;;;;;;;;;;;;;;5001356;28;128251;-74
2023/12/02 14:39:30;;;;;;;;;;;;;;;;;;4995860;28;123076;-75
2023/12/02 14:41:57;;;;;;;;;;;;;;;;;;5002618;28;98222;-74
2023/12/02 14:44:24;;;;;;;;;;;;;;;;;;4999694;27;111116;-74
2023/12/02 14:46:50;;;;;;;;;;;;;;;;;;5004187;28;125693;-73
2023/12/02 14:49:17;;;;;;;;;;;;;;;;;;4995737;28;114530;-74
2023/12/02 14:51:43;;;;;;;;;;;;;;;;;;4995125;28;129365;-74
2023/12/02 14:54:10;;;;;;;;;;;;;;;;;;5004139;28;114593;-74
2023/12/02 14:56:40;;;;;;;;;;;;;;;;;;5006343;28;129284;-75
2023/12/02 14:59:06;;;;;;;;;;;;;;;;;;4997512;28;129473;-73
2023/12/02 15:01:32;;;;;;;;;;;;;;;;;;4998469;28;123243;-75
2023/12/02 15:03:59;;;;;;;;;;;;;;;;;;4998910;28;129277;-75
2023/12/02 15:06:26;;;;;;;;;;;;;;;;;;4991163;28;130671;-75
2023/12/02 15:08:53;;;;;;;;;;;;;;;;;;4997846;28;122681;-75
2023/12/02 15:11:19;;;;;;;;;;;;;;;;;;5005805;28;129264;-75
2023/12/02 15:13:45;;;;;;;;;;;;;;;;;;4990655;28;129615;-75
2023/12/02 15:16:12;;;;;;;;;;;;;;;;;;5001413;28;122387;-75
2023/12/02 15:18:38;;;;;;;;;;;;;;;;;;5000596;28;129412;-75
2023/12/02 15:21:05;;;;;;;;;;;;;;;;;;4993638;28;123415;-75
2023/12/02 15:23:31;;;;;;;;;;;;;;;;;;4996613;28;101049;-75
2023/12/02 15:25:57;;;;;;;;;;;;;;;;;;5002046;28;128187;-75
2023/12/02 15:28:24;;;;;;;;;;;;;;;;;;4991329;28;123413;-75
2023/12/02 15:30:50;;;;;;;;;;;;;;;;;;4990205;28;128951;-75
2023/12/02 15:33:16;;;;;;;;;;;;;;;;;;5000547;28;124220;-76
2023/12/02 15:35:43;;;;;;;;;;;;;;;;;;4998088;28;123005;-75
2023/12/02 15:38:09;;;;;;;;;;;;;;;;;;5005995;28;130104;-75
2023/12/02 15:40:36;;;;;;;;;;;;;;;;;;4995414;28;122391;-75
2023/12/02 15:43:02;;;;;;;;;;;;;;;;;;4990537;28;129573;-76
2023/12/02 15:45:29;;;;;;;;;;;;;;;;;;4992394;28;99707;-76
2023/12/02 15:47:57;;;;;;;;;;;;;;;;;;4995372;28;126214;-76
2023/12/02 15:50:24;;;;;;;;;;;;;;;;;;4990471;28;129009;-74
2023/12/02 15:52:50;;;;;;;;;;;;;;;;;;4994471;28;129355;-74
2023/12/02 15:55:17;;;;;;;;;;;;;;;;;;4996166;28;122322;-75
2023/12/02 15:57:43;;;;;;;;;;;;;;;;;;4999699;28;129194;-73
2023/12/02 16:00:10;;;;;;;;;;;;;;;;;;5000904;28;129321;-74
2023/12/02 16:02:36;;;;;;;;;;;;;;;;;;4999387;28;98214;-74
2023/12/02 16:05:03;;;;;;;;;;;;;;;;;;4994145;27;110735;-75
2023/12/02 16:07:29;;;;;;;;;;;;;;;;;;4990500;28;122841;-74
2023/12/02 16:09:55;;;;;;;;;;;;;;;;;;4992464;28;128711;-74
2023/12/02 16:12:22;;;;;;;;;;;;;;;;;;4988139;28;130772;-74
2023/12/02 16:14:48;;;;;;;;;;;;;;;;;;4991106;28;115916;-76
2023/12/02 16:17:16;;;;;;;;;;;;;;;;;;4989377;28;128971;-75
2023/12/02 16:19:42;;;;;;;;;;;;;;;;;;4991773;28;129389;-74
2023/12/02 16:22:08;;;;;;;;;;;;;;;;;;5000592;28;123030;-74
2023/12/02 16:24:35;;;;;;;;;;;;;;;;;;4994056;28;128087;-74